Time;durP1;ratioP1;P1;durP2;ratioP2;P2;SDS_P1;SDS_P2;PMS_P1;PMS_P2;Temp;Humidity;BMP_temperature;BMP_pressure;BME280_temperature;BME280_humidity;BME280_pressure;Samples;Min_cycle;Max_cycle;Signal;HPM_P1;HPM_P2
2022/03/18 00:00:18;;;;;;;10.75;4.93;;;;;;;17.97;12.88;100010.19;5086688;28;20040;-79
2022/03/18 00:02:45;;;;;;;7.50;4.45;;;;;;;18.65;12.54;100005.66;5085958;28;20367;-79
2022/03/18 00:05:12;;;;;;;9.68;4.05;;;;;;;18.46;12.64;100015.41;5080943;28;20124;-78
2022/03/18 00:07:40;;;;;;;16.05;5.43;;;;;;;18.20;12.81;100012.16;5065713;28;20052;-79
2022/03/18 00:10:08;;;;;;;14.10;4.75;;;;;;;17.22;13.46;100018.63;5083592;28;20232;-79
2022/03/18 00:12:34;;;;;;;11.35;4.78;;;;;;;17.92;12.94;100014.78;5081414;28;20130;-79
2022/03/18 00:15:00;;;;;;;10.48;4.43;;;;;;;17.35;13.27;100013.97;5082353;28;20481;-79
2022/03/18 00:17:27;;;;;;;13.38;5.90;;;;;;;16.13;14.20;100030.16;5083015;28;20036;-79
2022/03/18 00:19:53;;;;;;;12.55;4.80;;;;;;;17.23;13.58;100022.22;5082513;28;20047;-79
2022/03/18 00:22:19;;;;;;;10.02;4.55;;;;;;;17.10;13.80;100024.16;5079337;28;20020;-79
2022/03/18 00:24:45;;;;;;;9.55;4.88;;;;;;;15.89;14.77;100020.50;5073051;28;20039;-79
2022/03/18 00:27:12;;;;;;;8.27;5.00;;;;;;;16.33;14.42;100023.88;5053754;28;20048;-79
2022/03/18 00:29:38;;;;;;;10.05;5.30;;;;;;;16.64;14.20;100032.66;5051456;28;20949;-79
2022/03/18 00:32:05;;;;;;;12.35;6.00;;;;;;;16.15;14.45;100027.91;5068928;28;20127;-79
2022/03/18 00:34:31;;;;;;;7.05;3.85;;;;;;;18.18;12.83;100022.78;5070858;28;20031;-79
2022/03/18 00:36:58;;;;;;;10.38;4.20;;;;;;;18.60;12.45;100026.16;5086147;28;20036;-79
2022/03/18 00:39:24;;;;;;;12.55;5.30;;;;;;;18.97;12.20;100030.50;5083583;28;20366;-79
2022/03/18 00:41:50;;;;;;;13.73;5.03;;;;;;;17.94;12.59;100026.41;5082601;28;20059;-79
2022/03/18 00:44:16;;;;;;;9.45;4.88;;;;;;;18.92;12.22;100025.19;5084724;28;20577;-79
2022/03/18 00:46:43;;;;;;;15.27;4.10;;;;;;;19.75;11.63;100025.16;5078881;28;20040;-79
2022/03/18 00:52:06;;;;;;;11.18;4.80;;;;;;;20.28;11.10;100020.97;5080873;28;20520;-79
2022/03/18 00:54:37;;;;;;;8.68;4.28;;;;;;;19.16;12.00;100027.06;5078988;28;20063;-79
2022/03/18 00:57:04;;;;;;;9.00;3.65;;;;;;;18.18;12.51;100027.56;5082897;28;20034;-79
2022/03/18 00:59:31;;;;;;;11.10;5.15;;;;;;;19.32;11.92;100034.28;5081537;28;20067;-79
2022/03/18 01:01:57;;;;;;;8.63;4.32;;;;;;;19.18;11.95;100038.66;5077581;28;20826;-79
2022/03/18 01:04:25;;;;;;;9.95;3.47;;;;;;;20.11;11.22;100028.88;5082119;28;20043;-80
2022/03/18 01:06:52;;;;;;;8.88;4.32;;;;;;;20.18;11.26;100037.41;5081279;28;20248;-79
2022/03/18 01:09:21;;;;;;;6.60;3.38;;;;;;;21.06;10.79;100036.72;5081295;28;20405;-79
2022/03/18 01:11:49;;;;;;;6.53;3.80;;;;;;;19.47;11.54;100043.91;5082668;28;20031;-79
2022/03/18 01:14:19;;;;;;;8.40;3.95;;;;;;;20.12;11.21;100044.44;5078245;28;20032;-79
2022/03/18 01:16:45;;;;;;;9.00;4.22;;;;;;;20.26;11.33;100023.31;5084754;28;20020;-79
2022/03/18 01:19:12;;;;;;;8.30;4.20;;;;;;;19.65;11.50;100033.25;5082282;28;20081;-79
2022/03/18 01:21:39;;;;;;;8.00;4.25;;;;;;;18.97;11.92;100024.13;5081161;28;20409;-79
2022/03/18 01:24:05;;;;;;;10.23;4.43;;;;;;;18.71;12.28;100032.06;5084787;28;20035;-79
2022/03/18 01:26:32;;;;;;;9.48;4.65;;;;;;;18.79;12.19;100028.31;5079619;28;20049;-79
2022/03/18 01:28:58;;;;;;;10.05;4.75;;;;;;;19.07;12.10;100026.38;5083173;28;20366;-79
2022/03/18 01:31:26;;;;;;;6.93;3.55;;;;;;;19.37;11.90;100024.91;5081545;28;20044;-79
2022/03/18 01:33:53;;;;;;;5.63;3.47;;;;;;;18.30;12.60;100022.81;5075014;28;20043;-79
2022/03/18 01:36:19;;;;;;;10.88;4.50;;;;;;;19.12;12.08;100026.97;5080356;28;20413;-79
2022/03/18 01:38:46;;;;;;;7.65;4.07;;;;;;;18.60;12.48;100017.81;5082001;28;20040;-79
2022/03/18 01:41:12;;;;;;;7.30;3.40;;;;;;;18.08;13.02;100030.81;5080290;28;20028;-79
2022/03/18 01:43:47;;;;;;;9.77;4.22;;;;;;;17.99;13.03;100019.81;5082181;28;20037;-79
2022/03/18 01:46:15;;;;;;;8.65;3.35;;;;;;;18.89;12.36;100025.88;5078900;28;20036;-79
2022/03/18 01:48:42;;;;;;;9.48;4.32;;;;;;;19.24;12.14;100026.91;5081226;28;20043;-79
2022/03/18 01:51:08;;;;;;;12.98;4.03;;;;;;;19.42;11.89;100030.22;5080572;28;20039;-79
2022/03/18 01:53:37;;;;;;;9.18;3.50;;;;;;;19.99;11.58;100032.56;5079660;28;20047;-79
2022/03/18 01:56:06;;;;;;;9.50;3.40;;;;;;;20.34;11.19;100024.28;5077282;28;20127;-79
2022/03/18 01:58:33;;;;;;;7.88;3.58;;;;;;;20.61;11.18;100021.34;5075905;28;20039;-79
2022/03/18 02:00:59;;;;;;;4.90;3.50;;;;;;;20.50;11.25;100027.88;5076818;28;20051;-79
2022/03/18 02:03:25;;;;;;;11.40;3.78;;;;;;;20.45;11.25;100026.16;5081611;28;20332;-79
2022/03/18 02:05:51;;;;;;;7.28;3.70;;;;;;;20.13;11.14;100032.09;5081438;28;20112;-79
2022/03/18 02:08:18;;;;;;;8.77;4.22;;;;;;;20.05;11.28;100031.09;5081127;28;20043;-79
2022/03/18 02:10:45;;;;;;;8.40;3.75;;;;;;;20.17;11.46;100025.44;5079655;28;20039;-79
2022/03/18 02:13:12;;;;;;;7.47;3.63;;;;;;;20.69;10.95;100022.34;5089297;28;20438;-79
2022/03/18 02:15:38;;;;;;;7.90;3.60;;;;;;;20.60;10.89;100025.34;5079360;28;20028;-79
2022/03/18 02:18:05;;;;;;;8.05;3.90;;;;;;;20.60;11.06;100032.88;5081115;28;20489;-78
2022/03/18 02:20:34;;;;;;;6.22;2.90;;;;;;;20.32;11.26;100024.66;5061431;28;20481;-79
2022/03/18 02:23:01;;;;;;;7.43;3.50;;;;;;;20.13;11.22;100030.13;5073326;28;20031;-79
2022/03/18 02:25:27;;;;;;;6.60;3.78;;;;;;;20.21;11.33;100034.69;5081000;28;20030;-79
2022/03/18 02:27:55;;;;;;;12.27;4.75;;;;;;;19.86;11.57;100036.59;5081322;28;20189;-79
2022/03/18 02:30:22;;;;;;;12.32;5.90;;;;;;;18.44;12.30;100039.13;5082319;28;20027;-79
2022/03/18 02:32:49;;;;;;;8.57;5.07;;;;;;;17.96;12.82;100039.94;5077621;28;20055;-79
2022/03/18 02:35:15;;;;;;;7.53;3.90;;;;;;;19.40;11.92;100038.13;5079859;28;20097;-79
2022/03/18 02:37:41;;;;;;;9.75;4.28;;;;;;;20.34;11.23;100039.06;5077379;28;20066;-79
2022/03/18 02:40:08;;;;;;;9.30;4.18;;;;;;;20.42;11.22;100035.25;5078537;28;20070;-79
2022/03/18 02:42:34;;;;;;;7.25;3.47;;;;;;;19.52;11.72;100042.81;5077991;28;20036;-79
2022/03/18 02:45:01;;;;;;;6.85;2.90;;;;;;;19.60;11.69;100050.22;5078493;28;20112;-79
2022/03/18 02:47:27;;;;;;;7.72;4.38;;;;;;;18.88;12.11;100049.28;5060653;28;20062;-78
2022/03/18 02:49:53;;;;;;;8.43;4.47;;;;;;;18.59;12.38;100044.03;5080326;28;20085;-79
2022/03/18 02:52:19;;;;;;;8.20;3.92;;;;;;;19.17;12.19;100053.72;5080332;28;20036;-79
2022/03/18 02:54:46;;;;;;;8.00;4.00;;;;;;;19.64;11.77;100053.91;5059904;28;20409;-78
2022/03/18 02:57:12;;;;;;;7.85;3.60;;;;;;;19.58;11.90;100056.13;5089556;28;21242;-78
2022/03/18 02:59:39;;;;;;;7.97;4.57;;;;;;;19.10;12.27;100061.88;5080470;28;20119;-79
2022/03/18 03:02:06;;;;;;;8.80;4.30;;;;;;;18.06;12.86;100060.91;5078059;28;20036;-79
2022/03/18 03:04:32;;;;;;;9.75;3.65;;;;;;;19.16;12.29;100063.28;5081301;28;20032;-79
2022/03/18 03:09:43;;;;;;;8.25;3.92;;;;;;;19.49;11.87;100061.06;5078451;28;20105;-78
2022/03/18 03:12:09;;;;;;;8.85;4.15;;;;;;;18.90;12.27;100060.09;5078138;28;20122;-79
2022/03/18 03:14:36;;;;;;;9.60;4.20;;;;;;;18.86;12.30;100061.94;5056619;28;20469;-79
2022/03/18 03:17:03;;;;;;;7.45;3.90;;;;;;;18.32;12.74;100072.53;5080943;28;20088;-79
2022/03/18 03:19:30;;;;;;;7.63;3.97;;;;;;;18.49;12.78;100069.53;5078016;28;20400;-79
2022/03/18 03:21:56;;;;;;;5.80;3.63;;;;;;;18.49;12.70;100075.91;5077617;28;20021;-79
2022/03/18 03:24:22;;;;;;;7.20;3.60;;;;;;;19.07;12.52;100076.50;5082182;28;20024;-79
2022/03/18 03:26:48;;;;;;;6.82;3.90;;;;;;;18.95;12.52;100071.78;5076523;28;20135;-79
2022/03/18 03:29:14;;;;;;;7.97;4.53;;;;;;;18.94;12.43;100077.69;5073388;28;20097;-78
2022/03/18 03:31:40;;;;;;;7.38;3.40;;;;;;;18.46;12.91;100078.59;5077203;28;20059;-78
2022/03/18 03:34:06;;;;;;;8.63;3.58;;;;;;;18.22;12.94;100078.53;5081024;28;20417;-78
2022/03/18 03:36:32;;;;;;;8.40;4.53;;;;;;;17.60;13.37;100081.50;5060227;28;20032;-79
2022/03/18 03:38:59;;;;;;;9.75;4.57;;;;;;;17.29;13.58;100085.53;5081676;28;20537;-79
2022/03/18 03:41:25;;;;;;;7.75;4.22;;;;;;;17.51;13.37;100086.31;5077922;28;20044;-78
2022/03/18 03:43:51;;;;;;;9.57;4.38;;;;;;;18.72;12.49;100086.56;5080869;28;20055;-79
2022/03/18 03:46:17;;;;;;;7.78;3.83;;;;;;;18.95;12.15;100090.47;5079561;28;20061;-79
2022/03/18 03:48:43;;;;;;;8.60;4.13;;;;;;;18.90;12.48;100099.88;5081671;28;20039;-78
2022/03/18 03:51:09;;;;;;;7.47;3.67;;;;;;;19.29;12.13;100095.47;5077215;28;20500;-79
2022/03/18 03:53:36;;;;;;;7.03;3.47;;;;;;;18.51;12.69;100093.03;5078954;28;20032;-78
2022/03/18 03:56:02;;;;;;;7.20;3.60;;;;;;;18.26;12.91;100098.91;5079987;28;20020;-79
2022/03/18 03:58:28;;;;;;;10.70;4.38;;;;;;;18.19;12.63;100104.22;5077413;28;20024;-79
2022/03/18 04:00:54;;;;;;;11.73;4.85;;;;;;;17.86;12.95;100102.31;5086423;28;20496;-79
2022/03/18 04:03:20;;;;;;;10.13;4.30;;;;;;;17.75;13.13;100103.91;5064592;28;20170;-79
2022/03/18 04:05:46;;;;;;;9.18;3.75;;;;;;;17.80;13.16;100108.44;5083678;28;20029;-79
2022/03/18 04:08:12;;;;;;;10.32;3.58;;;;;;;18.91;12.42;100097.88;5081055;28;20028;-79
2022/03/18 04:10:42;;;;;;;8.65;4.45;;;;;;;17.48;13.33;100115.56;5078778;28;20119;-79
2022/03/18 04:13:08;;;;;;;7.38;3.00;;;;;;;18.49;12.80;100105.69;5080741;28;20054;-79
2022/03/18 04:15:34;;;;;;;8.63;3.17;;;;;;;19.75;11.72;100105.97;5080836;28;20813;-79
2022/03/18 04:18:00;;;;;;;7.55;3.67;;;;;;;19.73;11.64;100118.66;5081450;28;20046;-79
2022/03/18 04:20:30;;;;;;;6.85;3.47;;;;;;;20.02;11.47;100115.50;5082460;28;20055;-79
2022/03/18 04:22:56;;;;;;;8.18;3.25;;;;;;;19.79;11.47;100114.47;5084600;28;20401;-79
2022/03/18 04:25:22;;;;;;;11.52;3.28;;;;;;;18.31;12.62;100118.97;5083589;28;20035;-79
2022/03/18 04:27:49;;;;;;;11.60;4.90;;;;;;;17.60;13.06;100120.41;5079060;28;20054;-78
2022/03/18 04:30:15;;;;;;;9.32;4.43;;;;;;;18.49;12.77;100109.28;5082712;28;20512;-79
2022/03/18 04:32:43;;;;;;;11.85;4.20;;;;;;;18.27;12.71;100120.00;5079906;28;22300;-78
2022/03/18 04:35:10;;;;;;;8.60;3.80;;;;;;;19.04;12.34;100119.78;5080123;28;20029;-79
2022/03/18 04:37:38;;;;;;;7.22;3.63;;;;;;;18.97;12.22;100121.53;5075484;28;20036;-79
2022/03/18 04:40:05;;;;;;;9.10;3.55;;;;;;;18.94;12.21;100120.28;5079815;28;20481;-79
2022/03/18 04:42:31;;;;;;;10.80;4.47;;;;;;;18.68;12.39;100127.34;5078016;28;20031;-79
2022/03/18 04:44:57;;;;;;;6.45;3.42;;;;;;;19.42;11.91;100124.94;5086146;28;20028;-79
2022/03/18 04:47:23;;;;;;;7.68;3.65;;;;;;;20.08;11.55;100121.59;5083596;28;20028;-79
2022/03/18 04:49:49;;;;;;;7.05;3.58;;;;;;;19.72;11.68;100125.41;5081279;28;20077;-78
2022/03/18 04:52:16;;;;;;;6.07;3.30;;;;;;;19.21;11.79;100125.06;5063392;28;20445;-79
2022/03/18 04:54:42;;;;;;;10.73;4.13;;;;;;;20.08;11.38;100132.75;5080376;28;20040;-79
2022/03/18 04:57:18;;;;;;;5.35;3.20;;;;;;;20.10;11.42;100138.78;5078788;28;20040;-79
2022/03/18 04:59:46;;;;;;;7.97;3.55;;;;;;;20.64;10.94;100139.84;5072798;28;20031;-79
2022/03/18 05:02:14;;;;;;;6.85;3.55;;;;;;;21.01;10.78;100131.94;5082253;28;20461;-78
2022/03/18 05:04:41;;;;;;;9.15;3.78;;;;;;;21.18;10.71;100137.16;5078532;28;20082;-79
2022/03/18 05:07:08;;;;;;;10.55;3.17;;;;;;;21.32;10.55;100135.50;5080343;28;23874;-79
2022/03/18 05:09:34;;;;;;;9.40;3.40;;;;;;;21.32;10.54;100146.66;5080045;28;20047;-79
2022/03/18 05:12:00;;;;;;;6.32;3.38;;;;;;;21.30;10.66;100146.22;5083312;28;20169;-79
2022/03/18 05:14:27;;;;;;;7.68;3.60;;;;;;;19.87;11.42;100152.50;5080258;28;20477;-79
2022/03/18 05:16:53;;;;;;;7.82;4.00;;;;;;;19.35;11.92;100146.97;5086041;28;20543;-79
2022/03/18 05:19:19;;;;;;;7.00;3.30;;;;;;;19.03;12.40;100156.31;5060749;28;20062;-78
2022/03/18 05:21:45;;;;;;;7.75;3.75;;;;;;;18.87;12.65;100152.63;5077560;28;20040;-79
2022/03/18 05:24:12;;;;;;;7.80;3.53;;;;;;;18.24;13.24;100157.66;5083996;28;20137;-79
2022/03/18 05:26:38;;;;;;;6.88;3.67;;;;;;;19.10;12.84;100160.16;5077786;28;20041;-78
2022/03/18 05:29:04;;;;;;;7.68;3.80;;;;;;;19.87;12.40;100144.94;5078674;28;20033;-79
2022/03/18 05:31:32;;;;;;;8.70;4.25;;;;;;;19.13;12.55;100145.53;5082238;28;20028;-79
2022/03/18 05:33:58;;;;;;;9.88;3.75;;;;;;;19.10;12.49;100150.97;5067165;28;20036;-79
2022/03/18 05:36:24;;;;;;;7.88;3.95;;;;;;;18.59;12.85;100160.88;5087273;28;20088;-79
2022/03/18 05:38:50;;;;;;;11.38;4.40;;;;;;;18.77;12.96;100153.91;5079630;28;20540;-79
2022/03/18 05:41:16;;;;;;;9.70;4.93;;;;;;;18.61;12.91;100161.31;5066007;28;20040;-79
2022/03/18 05:43:43;;;;;;;8.25;3.72;;;;;;;19.88;12.36;100154.91;5086463;28;20110;-79
2022/03/18 05:46:11;;;;;;;7.63;3.83;;;;;;;20.58;11.78;100160.81;5084259;28;20193;-79
2022/03/18 05:48:38;;;;;;;9.02;4.28;;;;;;;21.11;11.49;100160.16;5085010;28;20188;-79
2022/03/18 05:51:04;;;;;;;10.25;4.15;;;;;;;20.44;11.68;100172.41;5083655;28;20032;-79
2022/03/18 05:53:30;;;;;;;11.30;4.50;;;;;;;20.98;11.48;100160.59;5077820;28;20070;-79
2022/03/18 05:58:43;;;;;;;10.30;4.78;;;;;;;20.59;11.87;100177.19;5076121;28;20058;-79
2022/03/18 06:01:12;;;;;;;10.60;5.53;;;;;;;19.74;12.39;100176.81;5074518;28;20036;-79
2022/03/18 06:03:38;;;;;;;7.78;3.80;;;;;;;20.47;12.01;100179.25;5074279;28;20489;-79
2022/03/18 06:06:05;;;;;;;7.93;3.90;;;;;;;20.93;11.52;100184.03;5056167;28;20032;-79
2022/03/18 06:14:01;;;;;;;8.20;4.68;;;;;;;20.83;11.71;100187.38;5080392;28;20116;-81
2022/03/18 06:16:27;;;;;;;8.05;4.88;;;;;;;20.73;11.60;100198.25;5059420;28;20032;-80
2022/03/18 06:18:54;;;;;;;8.75;3.80;;;;;;;20.92;11.58;100195.56;5082057;28;20485;-81
2022/03/18 06:21:21;;;;;;;12.90;6.20;;;;;;;19.81;12.40;100199.31;5078629;28;20161;-81
2022/03/18 06:23:47;;;;;;;11.65;6.15;;;;;;;18.41;13.91;100201.16;5079577;28;20085;-81
2022/03/18 06:26:14;;;;;;;9.95;5.70;;;;;;;19.06;13.25;100205.75;5078786;28;20043;-79
2022/03/18 06:28:40;;;;;;;11.65;5.70;;;;;;;17.86;14.38;100210.69;5078080;28;20553;-81
2022/03/18 06:31:06;;;;;;;11.80;6.40;;;;;;;17.17;15.14;100210.41;5085143;28;20035;-81
2022/03/18 06:33:33;;;;;;;14.38;7.35;;;;;;;15.87;16.41;100215.84;5084800;28;20032;-81
2022/03/18 06:36:00;;;;;;;13.60;6.68;;;;;;;15.39;16.81;100213.22;5079548;28;20041;-81
2022/03/18 06:38:26;;;;;;;16.90;7.35;;;;;;;14.92;17.56;100220.47;5091009;28;20016;-81
2022/03/18 06:40:53;;;;;;;13.77;7.43;;;;;;;14.61;18.01;100233.50;5077389;28;20043;-81
2022/03/18 06:43:19;;;;;;;17.23;8.43;;;;;;;15.10;17.65;100226.84;5078284;28;20020;-81
2022/03/18 06:45:45;;;;;;;16.80;8.48;;;;;;;14.27;18.49;100223.06;5081616;28;20059;-81
2022/03/18 06:48:11;;;;;;;13.23;7.53;;;;;;;14.77;18.44;100228.38;5068655;28;20105;-81
2022/03/18 06:50:37;;;;;;;16.10;7.93;;;;;;;14.65;18.20;100234.53;5082357;28;20039;-81
2022/03/18 06:53:03;;;;;;;17.17;8.52;;;;;;;13.37;19.35;100239.13;5093094;28;20429;-81
2022/03/18 06:55:29;;;;;;;19.50;10.23;;;;;;;14.27;18.81;100250.72;5090129;28;20024;-81
2022/03/18 06:57:55;;;;;;;20.80;9.23;;;;;;;15.55;17.38;100244.03;5084660;28;20496;-81
2022/03/18 07:00:21;;;;;;;17.90;7.75;;;;;;;17.24;15.86;100238.44;5076390;28;20033;-81
2022/03/18 07:02:47;;;;;;;20.05;8.52;;;;;;;17.03;16.11;100243.13;5081316;28;20028;-81
2022/03/18 07:05:14;;;;;;;15.18;7.97;;;;;;;16.20;16.97;100258.53;5079407;28;20067;-81
2022/03/18 07:07:40;;;;;;;19.02;8.48;;;;;;;16.09;16.68;100265.56;5084433;28;20036;-81
2022/03/18 07:10:07;;;;;;;16.83;7.85;;;;;;;17.74;15.34;100246.75;5078888;28;20040;-81
2022/03/18 07:12:33;;;;;;;16.90;9.63;;;;;;;16.73;16.17;100255.34;5094641;28;20051;-81
2022/03/18 07:14:59;;;;;;;14.13;8.07;;;;;;;17.76;15.37;100246.44;5079115;28;20470;-81
2022/03/18 07:20:12;;;;;;;15.10;6.53;;;;;;;21.49;12.61;100248.84;5079499;28;20123;-81
2022/03/18 07:22:39;;;;;;;15.73;7.75;;;;;;;20.79;13.01;100242.31;5080834;28;20028;-81
2022/03/18 07:25:05;;;;;;;12.88;6.18;;;;;;;21.54;12.18;100250.56;5082142;28;20032;-81
2022/03/18 07:27:31;;;;;;;11.57;5.35;;;;;;;22.80;11.54;100241.16;5081763;28;20127;-81
2022/03/18 07:29:58;;;;;;;12.82;6.53;;;;;;;23.43;10.84;100252.66;5076684;28;20024;-81
2022/03/18 07:32:24;;;;;;;14.93;6.50;;;;;;;23.20;11.26;100246.25;5083291;28;20025;-81
2022/03/18 07:34:50;;;;;;;9.20;5.00;;;;;;;22.92;11.45;100255.00;5086213;28;20119;-81
2022/03/18 07:37:16;;;;;;;11.45;5.85;;;;;;;23.10;11.33;100252.50;5085947;28;20101;-81
2022/03/18 07:39:42;;;;;;;8.77;4.70;;;;;;;23.13;11.45;100257.34;5086292;28;20394;-81
2022/03/18 07:42:09;;;;;;;13.35;7.00;;;;;;;23.47;11.18;100256.31;5072024;28;20031;-81
2022/03/18 07:44:36;;;;;;;11.77;5.95;;;;;;;23.99;10.86;100261.06;5063458;28;20029;-81
2022/03/18 07:47:03;;;;;;;12.75;6.90;;;;;;;22.21;11.66;100261.22;5086267;28;23825;-81
2022/03/18 07:49:29;;;;;;;10.15;5.65;;;;;;;21.61;12.65;100273.06;5082117;28;20028;-81
2022/03/18 07:51:55;;;;;;;11.70;5.13;;;;;;;23.28;11.72;100264.81;5086549;28;20085;-81
2022/03/18 07:54:21;;;;;;;11.80;5.85;;;;;;;23.35;11.74;100257.34;5081660;28;20024;-81
2022/03/18 07:56:50;;;;;;;10.95;5.78;;;;;;;24.44;10.62;100257.22;5083479;28;20531;-81
2022/03/18 07:59:16;;;;;;;11.13;6.22;;;;;;;24.46;10.39;100264.06;5084580;28;20043;-82
2022/03/18 08:01:42;;;;;;;15.10;6.85;;;;;;;21.52;12.76;100272.47;5086917;28;20032;-81
2022/03/18 08:04:12;;;;;;;11.77;5.30;;;;;;;20.43;13.20;100273.22;5085203;28;20036;-81
2022/03/18 08:06:38;;;;;;;17.20;8.32;;;;;;;18.63;14.65;100276.66;5081461;28;20178;-81
2022/03/18 08:09:05;;;;;;;10.57;5.90;;;;;;;20.86;13.19;100276.00;5084284;28;20035;-81
2022/03/18 08:11:31;;;;;;;15.82;8.10;;;;;;;21.48;12.60;100272.38;5084655;28;20035;-82
2022/03/18 08:13:58;;;;;;;13.13;6.10;;;;;;;23.29;11.71;100269.25;5083161;28;20033;-81
2022/03/18 08:16:26;;;;;;;13.05;5.35;;;;;;;24.17;11.45;100267.75;5089052;28;20644;-82
2022/03/18 08:18:54;;;;;;;12.07;6.13;;;;;;;23.50;11.57;100280.00;5082403;28;20054;-82
2022/03/18 08:21:20;;;;;;;14.55;6.65;;;;;;;24.14;10.96;100273.28;5078615;28;20036;-82
2022/03/18 08:23:46;;;;;;;13.80;7.07;;;;;;;23.95;11.10;100277.84;5080075;28;20474;-82
2022/03/18 08:26:13;;;;;;;15.20;6.97;;;;;;;23.92;11.28;100275.00;5087010;28;20051;-83
2022/03/18 08:28:39;;;;;;;11.55;6.07;;;;;;;21.98;12.44;100291.91;5080005;28;20027;-82
2022/03/18 08:31:05;;;;;;;12.50;7.85;;;;;;;21.50;12.87;100295.19;5087199;28;20032;-82
2022/03/18 08:33:32;;;;;;;16.95;7.97;;;;;;;21.18;12.89;100288.81;5089356;28;20093;-82
2022/03/18 08:35:59;;;;;;;11.52;5.47;;;;;;;22.96;11.95;100288.69;5086295;28;20394;-82
2022/03/18 08:38:25;;;;;;;9.40;4.70;;;;;;;24.17;11.05;100283.78;5072314;28;20545;-82
2022/03/18 08:40:51;;;;;;;13.50;7.45;;;;;;;21.92;12.28;100282.19;5085580;28;20100;-82
2022/03/18 08:43:17;;;;;;;13.95;6.03;;;;;;;22.07;12.76;100293.69;5085243;28;20031;-82
2022/03/18 08:45:44;;;;;;;11.75;5.78;;;;;;;23.86;11.51;100296.16;5074268;28;20105;-82
2022/03/18 08:48:10;;;;;;;8.38;5.28;;;;;;;23.75;11.33;100290.41;5083568;28;20505;-82
2022/03/18 08:50:36;;;;;;;10.57;5.57;;;;;;;22.22;12.40;100292.84;5083886;28;20025;-82
2022/03/18 08:53:09;;;;;;;14.45;7.75;;;;;;;20.33;13.75;100301.63;5085994;28;20031;-82
2022/03/18 08:55:36;;;;;;;13.23;7.50;;;;;;;19.47;14.57;100310.50;5063859;28;20067;-82
2022/03/18 08:58:03;;;;;;;12.65;7.57;;;;;;;20.10;14.15;100306.09;5086588;28;20111;-82
2022/03/18 09:00:30;;;;;;;10.75;5.90;;;;;;;20.25;14.03;100311.78;5085624;28;20025;-82
2022/03/18 09:02:56;;;;;;;14.32;8.70;;;;;;;18.02;15.72;100316.47;5069414;28;20032;-82
2022/03/18 09:05:22;;;;;;;14.82;7.05;;;;;;;19.18;15.83;100317.91;5085012;28;20052;-82
2022/03/18 09:07:48;;;;;;;15.30;9.30;;;;;;;18.18;15.72;100319.47;5084610;28;20043;-82
2022/03/18 09:10:14;;;;;;;17.73;8.93;;;;;;;19.67;14.80;100326.31;5081254;28;20494;-82
2022/03/18 09:12:45;;;;;;;18.95;9.50;;;;;;;17.91;15.82;100321.66;5086853;28;20035;-82
2022/03/18 09:15:11;;;;;;;25.17;9.38;;;;;;;17.25;16.81;100334.44;5079248;28;20017;-82
2022/03/18 09:17:37;;;;;;;13.77;7.80;;;;;;;18.05;16.24;100329.72;5085085;28;20122;-82
2022/03/18 09:20:06;;;;;;;15.70;9.07;;;;;;;18.13;15.77;100333.59;5081599;28;20020;-82
2022/03/18 09:22:32;;;;;;;15.38;7.70;;;;;;;18.18;16.00;100328.59;5063513;28;20150;-82
2022/03/18 09:24:58;;;;;;;16.92;7.82;;;;;;;19.86;14.69;100327.31;5062370;28;20035;-82
2022/03/18 09:27:24;;;;;;;21.27;8.95;;;;;;;18.59;15.21;100330.56;5088972;28;20079;-82
2022/03/18 09:29:50;;;;;;;15.15;8.80;;;;;;;18.95;15.94;100332.63;5072227;28;20036;-82
2022/03/18 09:32:16;;;;;;;13.68;7.25;;;;;;;22.36;13.16;100326.69;5080315;28;20386;-83
2022/03/18 09:34:43;;;;;;;16.27;6.95;;;;;;;23.95;11.80;100324.72;5072887;28;20106;-83
2022/03/18 09:37:09;;;;;;;20.08;10.70;;;;;;;20.40;13.78;100340.88;5080268;28;20025;-82
2022/03/18 09:39:35;;;;;;;16.33;8.48;;;;;;;18.31;15.79;100327.53;5078881;28;20038;-83
2022/03/18 09:42:02;;;;;;;15.57;7.55;;;;;;;18.91;15.56;100332.50;5081955;28;20032;-83
2022/03/18 09:44:38;;;;;;;17.60;8.85;;;;;;;18.06;16.25;100334.13;5081178;28;20029;-83
2022/03/18 09:47:06;;;;;;;19.63;8.85;;;;;;;19.00;15.12;100337.97;5080544;28;20036;-82
2022/03/18 09:49:34;;;;;;;14.77;8.77;;;;;;;20.58;13.84;100328.28;5078995;28;20080;-83
2022/03/18 09:52:00;;;;;;;11.95;6.43;;;;;;;22.18;13.16;100328.28;5084379;28;20028;-83
2022/03/18 09:54:31;;;;;;;17.35;8.65;;;;;;;19.74;14.43;100343.25;5081291;28;20383;-83
2022/03/18 09:56:57;;;;;;;17.17;8.88;;;;;;;19.02;15.18;100342.03;5084501;28;20171;-83
2022/03/18 09:59:25;;;;;;;14.32;7.90;;;;;;;18.00;16.35;100341.03;5082497;28;20019;-83
2022/03/18 10:02:11;;;;;;;10.38;6.13;;;;;;;21.68;14.02;100338.34;5086602;28;20038;-82
2022/03/18 10:04:58;;;;;;;11.50;7.40;;;;;;;21.73;12.70;100352.03;5085816;28;20096;-83
2022/03/18 10:07:26;;;;;;;19.45;9.52;;;;;;;20.91;14.00;100336.34;5080112;28;20051;-82
2022/03/18 10:10:14;;;;;;;10.32;6.88;;;;;;;21.33;13.60;100345.88;5090025;28;20031;-82
2022/03/18 10:12:42;;;;;;;11.23;6.13;;;;;;;21.83;13.58;100351.47;5082914;28;20113;-82
2022/03/18 10:15:24;;;;;;;16.23;7.32;;;;;;;21.22;13.47;100350.34;5077081;28;20088;-82
2022/03/18 10:17:56;;;;;;;16.17;10.15;;;;;;;21.73;13.45;100351.22;5080126;28;20147;-82
2022/03/18 10:20:35;;;;;;;18.58;9.65;;;;;;;17.21;16.89;100361.22;5076969;28;20106;-83
2022/03/18 10:23:16;;;;;;;19.83;9.40;;;;;;;16.93;17.53;100359.22;5079094;28;20049;-83
2022/03/18 10:25:53;;;;;;;19.90;9.93;;;;;;;17.55;17.19;100367.81;5081380;28;20071;-82
2022/03/18 10:28:37;;;;;;;17.88;10.20;;;;;;;17.94;16.60;100357.09;5065337;28;20462;-83
2022/03/18 10:31:19;;;;;;;16.42;7.65;;;;;;;19.55;15.40;100352.22;5084311;28;20094;-82
2022/03/18 10:39:31;;;;;;;20.00;10.60;;;;;;;17.87;16.94;100367.13;5083565;28;20062;-83
2022/03/18 10:42:03;;;;;;;18.65;10.20;;;;;;;19.03;15.98;100351.19;5088505;28;20068;-82
2022/03/18 10:44:41;;;;;;;20.63;10.57;;;;;;;18.55;15.79;100354.66;5077709;28;20021;-82
2022/03/18 10:47:07;;;;;;;17.48;9.45;;;;;;;18.19;16.49;100354.44;5081220;28;20028;-82
2022/03/18 10:49:33;;;;;;;18.52;11.13;;;;;;;17.85;17.16;100359.09;5079348;28;20042;-82
2022/03/18 10:52:10;;;;;;;21.65;11.48;;;;;;;18.05;17.23;100356.69;5080461;28;20032;-81
2022/03/18 10:54:36;;;;;;;22.05;11.35;;;;;;;18.48;16.80;100354.41;5080536;28;20040;-83
2022/03/18 10:57:02;;;;;;;19.70;11.43;;;;;;;18.75;16.95;100361.31;5085133;28;20020;-82
2022/03/18 10:59:29;;;;;;;20.13;11.52;;;;;;;19.43;15.88;100365.31;5069384;28;20059;-82
2022/03/18 11:01:57;;;;;;;23.08;13.70;;;;;;;18.43;17.54;100357.38;5089402;28;20028;-82
2022/03/18 11:04:27;;;;;;;19.60;11.50;;;;;;;18.52;16.59;100358.13;5084559;28;20032;-83
2022/03/18 11:12:31;;;;;;;24.25;14.07;;;;;;;19.00;17.30;100361.03;5089020;28;20488;-83
2022/03/18 11:14:58;;;;;;;24.55;13.88;;;;;;;19.47;16.36;100350.34;5083687;28;20029;-82
2022/03/18 11:17:25;;;;;;;24.10;13.70;;;;;;;19.42;16.91;100350.56;5083990;28;20062;-82
2022/03/18 11:19:59;;;;;;;26.80;14.27;;;;;;;18.77;17.74;100362.63;5067435;28;20032;-83
2022/03/18 11:22:27;;;;;;;20.08;11.15;;;;;;;22.55;15.07;100351.88;5080919;28;20032;-82
2022/03/18 11:24:56;;;;;;;19.70;12.18;;;;;;;23.63;13.72;100348.69;5089111;28;20078;-83
2022/03/18 11:27:22;;;;;;;21.17;13.10;;;;;;;22.62;14.09;100355.66;5084546;28;20063;-83
2022/03/18 11:30:08;;;;;;;23.40;12.15;;;;;;;21.54;14.71;100351.19;5083467;28;20027;-83
2022/03/18 11:32:34;;;;;;;25.45;14.00;;;;;;;19.95;16.07;100346.72;5077281;28;20024;-83
2022/03/18 11:35:04;;;;;;;20.90;12.73;;;;;;;21.98;14.85;100358.25;5083188;28;20060;-83
2022/03/18 11:37:30;;;;;;;18.30;11.38;;;;;;;21.67;14.43;100355.47;5085163;28;20104;-83
2022/03/18 11:40:23;;;;;;;21.40;13.27;;;;;;;19.41;16.20;100356.50;5086505;28;20118;-83
2022/03/18 11:42:49;;;;;;;19.23;11.30;;;;;;;21.27;14.86;100358.47;5089574;28;20044;-83
2022/03/18 11:45:33;;;;;;;20.90;13.07;;;;;;;19.75;15.95;100356.00;5064348;28;20032;-83
2022/03/18 11:47:59;;;;;;;21.55;12.73;;;;;;;20.05;15.98;100354.56;5074148;28;20039;-83